createdAt,value
2023-04-03T00:01:22.958Z,99.90
2023-04-03T00:03:53.124Z,99.90
2023-04-03T00:06:21.589Z,99.90
2023-04-03T00:08:50.769Z,99.90
2023-04-03T00:11:19.346Z,99.90
2023-04-03T00:13:49.715Z,99.90
2023-04-03T00:16:18.320Z,99.90
2023-04-03T00:18:46.590Z,99.90
2023-04-03T00:21:16.577Z,99.90
2023-04-03T00:23:45.113Z,99.90
2023-04-03T00:26:13.903Z,99.90
2023-04-03T00:28:42.657Z,99.90
2023-04-03T00:31:12.602Z,99.90
2023-04-03T00:33:40.847Z,99.90
2023-04-03T00:36:11.396Z,99.90
2023-04-03T00:38:39.978Z,99.90
2023-04-03T00:41:08.622Z,99.90
2023-04-03T00:43:36.824Z,99.90
2023-04-03T00:46:05.850Z,99.90
2023-04-03T00:48:39.408Z,99.90
2023-04-03T00:51:12.134Z,99.90
2023-04-03T00:53:44.123Z,99.90
2023-04-03T00:56:15.140Z,99.90
2023-04-03T00:58:47.751Z,99.90
2023-04-03T01:01:22.631Z,99.90
2023-04-03T01:03:52.361Z,99.90
2023-04-03T01:06:27.500Z,99.90
2023-04-03T01:08:56.503Z,99.90
2023-04-03T01:11:25.855Z,99.90
2023-04-03T01:13:54.336Z,99.90
2023-04-03T01:16:23.014Z,99.90
2023-04-03T01:18:52.944Z,99.90
2023-04-03T01:21:47.882Z,99.90
2023-04-03T01:24:29.709Z,99.90
2023-04-03T01:26:58.691Z,99.90
2023-04-03T01:29:27.795Z,99.90
2023-04-03T01:32:00.335Z,99.90
2023-04-03T01:34:30.422Z,99.90
2023-04-03T01:36:59.742Z,99.90
2023-04-03T01:39:28.070Z,99.90
2023-04-03T01:41:56.714Z,99.90
2023-04-03T01:44:31.018Z,99.90
2023-04-03T01:47:01.026Z,99.90
2023-04-03T01:49:30.716Z,99.90
2023-04-03T01:51:59.983Z,99.90
2023-04-03T01:54:28.340Z,99.90
2023-04-03T01:56:57.389Z,99.90
2023-04-03T01:59:25.852Z,99.90
2023-04-03T02:01:54.775Z,99.90
2023-04-03T02:04:24.647Z,99.90
2023-04-03T02:06:53.572Z,99.90
2023-04-03T02:09:21.805Z,99.90
2023-04-03T02:11:50.405Z,99.90
2023-04-03T02:14:18.699Z,99.90
2023-04-03T02:16:47.716Z,99.90
2023-04-03T02:19:16.152Z,99.90
2023-04-03T02:21:46.174Z,99.90
2023-04-03T02:24:14.468Z,99.90
2023-04-03T02:26:42.782Z,99.90
2023-04-03T02:29:11.233Z,99.90
2023-04-03T02:31:39.946Z,99.90
2023-04-03T02:34:08.275Z,99.90
2023-04-03T02:36:38.321Z,99.90
2023-04-03T02:39:11.800Z,99.90
2023-04-03T02:41:40.221Z,99.90
2023-04-03T02:44:14.889Z,99.90
2023-04-03T02:46:43.200Z,99.90
2023-04-03T02:49:11.426Z,99.90
2023-04-03T02:51:40.490Z,99.90
2023-04-03T02:54:10.966Z,99.90
2023-04-03T02:56:42.676Z,99.90
2023-04-03T02:59:10.992Z,99.90
2023-04-03T03:01:41.118Z,99.90
2023-04-03T03:04:09.862Z,99.90
2023-04-03T03:06:38.083Z,99.90
2023-04-03T03:09:06.725Z,99.90
2023-04-03T03:11:36.328Z,99.90
2023-04-03T03:14:05.066Z,99.90
2023-04-03T03:16:35.694Z,99.90
2023-04-03T03:19:04.001Z,99.90
2023-04-03T03:21:32.641Z,99.90
2023-04-03T03:24:00.944Z,99.90
2023-04-03T03:26:29.211Z,99.90
2023-04-03T03:28:58.923Z,99.90
2023-04-03T03:31:28.414Z,99.90
2023-04-03T03:33:57.072Z,99.90
2023-04-03T03:36:25.611Z,99.90
2023-04-03T03:38:54.338Z,99.90
2023-04-03T03:41:22.823Z,99.90
2023-04-03T03:43:51.354Z,99.90
2023-04-03T03:46:21.661Z,99.90
2023-04-03T03:48:50.401Z,99.90
2023-04-03T03:51:18.760Z,99.90
2023-04-03T03:53:48.128Z,99.90
2023-04-03T03:56:19.690Z,99.90
2023-04-03T03:58:48.856Z,99.90
2023-04-03T04:01:17.807Z,99.90
2023-04-03T04:03:52.806Z,99.90
2023-04-03T04:06:24.348Z,99.90
2023-04-03T04:08:55.329Z,99.90
2023-04-03T04:11:23.897Z,99.90
2023-04-03T04:13:54.219Z,99.90
2023-04-03T04:16:26.743Z,99.90
2023-04-03T04:18:58.229Z,99.90
2023-04-03T04:21:27.636Z,99.90
2023-04-03T04:23:56.452Z,99.90
2023-04-03T04:26:25.885Z,99.90
2023-04-03T04:28:55.118Z,99.90
2023-04-03T04:31:23.521Z,99.90
2023-04-03T04:33:52.231Z,99.90
2023-04-03T04:36:22.143Z,99.90
2023-04-03T04:38:53.785Z,99.90
2023-04-03T04:41:24.697Z,99.90
2023-04-03T04:43:54.636Z,99.90
2023-04-03T04:46:23.696Z,99.90
2023-04-03T04:48:56.626Z,99.90
2023-04-03T04:51:29.554Z,99.90
2023-04-03T04:54:02.430Z,99.90
2023-04-03T04:56:31.102Z,99.90
2023-04-03T04:59:00.857Z,99.90
2023-04-03T05:01:29.950Z,99.90
2023-04-03T05:04:06.004Z,99.90
2023-04-03T05:06:36.186Z,99.90
2023-04-03T05:09:07.952Z,99.90
2023-04-03T05:11:37.421Z,99.90
2023-04-03T05:14:07.672Z,99.90
2023-04-03T05:16:37.636Z,99.90
2023-04-03T05:19:06.337Z,99.90
2023-04-03T05:21:36.884Z,99.90
2023-04-03T05:24:10.401Z,99.90
2023-04-03T05:26:42.413Z,99.90
2023-04-03T05:29:11.449Z,99.90
2023-04-03T05:31:40.208Z,99.90
2023-04-03T05:34:10.734Z,99.90
2023-04-03T05:36:42.954Z,99.90
2023-04-03T05:39:12.321Z,99.90
2023-04-03T05:41:44.113Z,99.90
2023-04-03T05:44:12.392Z,99.90
2023-04-03T05:46:41.506Z,99.90
2023-04-03T05:49:11.626Z,99.90
2023-04-03T05:51:43.062Z,99.90
2023-04-03T05:54:33.133Z,99.90
2023-04-03T05:57:15.768Z,99.90
2023-04-03T05:59:44.213Z,99.90
2023-04-03T06:02:14.397Z,99.90
2023-04-03T06:04:42.878Z,99.90
2023-04-03T06:07:16.502Z,99.90
2023-04-03T06:09:44.873Z,99.90
2023-04-03T06:12:13.397Z,99.90
2023-04-03T06:14:42.465Z,99.90
2023-04-03T06:17:11.474Z,99.90
2023-04-03T06:19:40.374Z,99.90
2023-04-03T06:22:09.104Z,99.90
2023-04-03T06:24:39.178Z,99.90
2023-04-03T06:27:07.570Z,99.90
2023-04-03T06:29:36.063Z,99.90
2023-04-03T06:32:04.383Z,99.90
2023-04-03T06:34:33.540Z,99.90
2023-04-03T06:37:02.332Z,99.90
2023-04-03T06:39:30.573Z,99.90
2023-04-03T06:42:00.630Z,99.90
2023-04-03T06:44:37.022Z,99.90
2023-04-03T06:47:05.510Z,99.90
2023-04-03T06:49:33.983Z,99.90
2023-04-03T06:52:02.749Z,99.90
2023-04-03T06:54:31.116Z,99.90
2023-04-03T06:57:00.811Z,99.90
2023-04-03T06:59:29.283Z,99.90
2023-04-03T07:02:00.048Z,99.90
2023-04-03T07:04:28.572Z,99.90
2023-04-03T07:06:57.823Z,99.90
2023-04-03T07:09:26.239Z,99.90
2023-04-03T07:11:54.825Z,99.90
2023-04-03T07:14:24.525Z,99.90
2023-04-03T07:16:53.555Z,99.90
2023-04-03T07:19:22.401Z,99.90
2023-04-03T07:21:51.087Z,99.90
2023-04-03T07:24:19.363Z,99.90
2023-04-03T07:26:51.574Z,99.90
2023-04-03T07:29:21.164Z,99.90
2023-04-03T07:31:51.738Z,99.90
2023-04-03T07:34:20.137Z,99.90
2023-04-03T07:36:49.139Z,99.90
2023-04-03T07:39:17.586Z,99.90
2023-04-03T07:41:46.012Z,99.90
2023-04-03T07:44:14.424Z,99.90
2023-04-03T07:46:43.913Z,99.90
2023-04-03T07:49:13.824Z,99.90
2023-04-03T07:51:42.743Z,99.90
2023-04-03T07:54:11.187Z,99.90
2023-04-03T07:56:39.842Z,99.90
2023-04-03T07:59:08.852Z,99.90
2023-04-03T08:01:37.706Z,99.90
2023-04-03T08:04:06.383Z,99.90
2023-04-03T08:06:46.448Z,99.90
2023-04-03T08:09:16.628Z,99.90
2023-04-03T08:11:45.418Z,99.90
2023-04-03T08:14:17.661Z,99.90
2023-04-03T08:16:46.976Z,99.90
2023-04-03T08:19:25.422Z,99.90
2023-04-03T08:21:57.789Z,99.90
2023-04-03T08:24:26.353Z,99.90
2023-04-03T08:26:54.658Z,99.90
2023-04-03T08:29:23.290Z,99.90
2023-04-03T08:31:52.369Z,99.90
2023-04-03T08:34:21.968Z,99.90
2023-04-03T08:36:50.689Z,99.90
2023-04-03T08:39:20.799Z,99.90
2023-04-03T08:41:50.237Z,99.90
2023-04-03T08:44:26.914Z,99.90
2023-04-03T08:47:05.422Z,99.90
2023-04-03T08:49:38.192Z,99.90
2023-04-03T08:52:13.957Z,99.90
2023-04-03T08:54:54.777Z,99.90
2023-04-03T08:57:31.337Z,99.90
2023-04-03T09:00:02.298Z,99.90
2023-04-03T09:02:37.409Z,99.90
2023-04-03T09:05:14.680Z,99.90
2023-04-03T09:07:48.647Z,99.90
2023-04-03T09:10:26.454Z,99.90
2023-04-03T09:13:01.566Z,99.90
2023-04-03T09:15:38.435Z,99.90
2023-04-03T09:18:14.396Z,99.90
2023-04-03T09:20:48.700Z,99.90
2023-04-03T09:23:24.883Z,99.90
2023-04-03T09:26:03.010Z,99.90
2023-04-03T09:28:39.134Z,99.90
2023-04-03T09:31:23.246Z,99.90
2023-04-03T09:33:54.520Z,99.90
2023-04-03T09:36:43.375Z,99.90
2023-04-03T09:39:17.523Z,99.90
2023-04-03T09:42:02.281Z,99.90
2023-04-03T09:44:33.282Z,99.90
2023-04-03T09:47:02.130Z,99.90
2023-04-03T09:49:30.385Z,99.90
2023-04-03T09:51:59.049Z,99.90
2023-04-03T09:54:42.135Z,99.90
2023-04-03T09:57:15.360Z,99.90
2023-04-03T09:59:48.351Z,99.90
2023-04-03T10:02:36.159Z,99.90
2023-04-03T10:05:10.007Z,99.90
2023-04-03T10:07:41.293Z,99.90
2023-04-03T10:10:23.919Z,99.90
2023-04-03T10:13:07.419Z,99.90
2023-04-03T10:15:42.522Z,99.90
2023-04-03T10:18:30.619Z,99.90
2023-04-03T10:21:06.159Z,99.90
2023-04-03T10:23:43.004Z,99.90
2023-04-03T10:26:15.574Z,99.90
2023-04-03T10:28:51.586Z,99.90
2023-04-03T10:31:26.532Z,99.90
2023-04-03T10:34:04.039Z,99.90
2023-04-03T10:36:41.178Z,99.90
2023-04-03T10:39:20.882Z,99.90
2023-04-03T10:42:15.115Z,99.90
2023-04-03T10:45:01.651Z,99.90
2023-04-03T10:47:41.230Z,99.90
2023-04-03T10:50:29.344Z,99.90
2023-04-03T10:53:05.431Z,99.90
2023-04-03T10:55:39.796Z,99.90
2023-04-03T10:58:11.526Z,99.90
2023-04-03T11:00:47.220Z,99.90
2023-04-03T11:03:19.570Z,99.90
2023-04-03T11:05:51.690Z,99.90
2023-04-03T11:08:29.329Z,99.90
2023-04-03T11:11:01.779Z,99.90
2023-04-03T11:13:37.696Z,99.90
2023-04-03T11:16:09.784Z,99.90
2023-04-03T11:18:46.048Z,99.90
2023-04-03T11:21:20.832Z,99.90
2023-04-03T11:23:50.400Z,99.90
2023-04-03T11:26:22.082Z,99.90
2023-04-03T11:28:55.803Z,99.90
2023-04-03T11:31:39.120Z,99.90
2023-04-03T11:34:21.297Z,99.90
2023-04-03T11:36:52.947Z,99.90
2023-04-03T11:39:25.957Z,99.90
2023-04-03T11:42:06.728Z,99.90
2023-04-03T11:44:41.039Z,99.10
2023-04-03T11:47:13.296Z,97.70
2023-04-03T11:50:09.285Z,98.10
2023-04-03T11:53:03.063Z,98.00
2023-04-03T11:56:00.899Z,97.20
2023-04-03T11:58:32.450Z,98.20
2023-04-03T12:01:12.600Z,98.30
2023-04-03T12:04:11.716Z,97.50
2023-04-03T12:07:01.096Z,97.80
2023-04-03T12:10:04.891Z,96.90
2023-04-03T12:12:37.763Z,94.70
2023-04-03T12:15:51.505Z,94.50
2023-04-03T12:18:59.661Z,97.10
2023-04-03T12:22:01.520Z,96.80
2023-04-03T12:24:32.819Z,96.20
2023-04-03T12:27:11.431Z,95.10
2023-04-03T12:29:46.617Z,94.60
2023-04-03T12:32:27.017Z,94.40
2023-04-03T12:35:13.488Z,93.80
2023-04-03T12:37:58.711Z,93.60
2023-04-03T12:40:33.891Z,93.40
2023-04-03T12:43:22.250Z,93.30
2023-04-03T12:45:56.176Z,93.70
2023-04-03T12:48:28.525Z,92.40
2023-04-03T12:50:58.094Z,92.30
2023-04-03T12:53:28.945Z,92.20
2023-04-03T12:56:00.128Z,92.60
2023-04-03T12:58:29.726Z,92.40
2023-04-03T13:01:06.662Z,91.80
2023-04-03T13:03:38.644Z,92.30
2023-04-03T13:06:08.009Z,92.30
2023-04-03T13:08:36.408Z,91.70
2023-04-03T13:11:12.697Z,91.50
2023-04-03T13:13:42.065Z,91.30
2023-04-03T13:16:15.943Z,90.90
2023-04-03T13:18:45.420Z,90.40
2023-04-03T13:21:19.240Z,90.30
2023-04-03T13:23:55.215Z,90.50
2023-04-03T13:26:30.595Z,90.70
2023-04-03T13:29:03.122Z,90.50
2023-04-03T13:31:34.711Z,90.60
2023-04-03T13:34:11.934Z,90.50
2023-04-03T13:36:43.055Z,90.20
2023-04-03T13:39:26.287Z,90.00
2023-04-03T13:41:58.084Z,90.40
2023-04-03T13:44:32.156Z,89.90
2023-04-03T13:47:03.270Z,89.50
2023-04-03T13:49:36.496Z,89.80
2023-04-03T13:52:23.303Z,89.50
2023-04-03T13:54:56.682Z,88.90
2023-04-03T13:57:27.161Z,87.60
2023-04-03T13:59:56.488Z,88.40
2023-04-03T14:02:33.133Z,88.50
2023-04-03T14:05:04.426Z,88.70
2023-04-03T14:07:34.138Z,88.40
2023-04-03T14:10:02.853Z,88.50
2023-04-03T14:12:37.207Z,88.30
2023-04-03T14:15:14.355Z,89.40
2023-04-03T14:17:43.320Z,89.30
2023-04-03T14:20:16.935Z,88.60
2023-04-03T14:22:45.893Z,88.60
2023-04-03T14:25:14.540Z,88.60
2023-04-03T14:27:47.096Z,88.50
2023-04-03T14:30:20.589Z,88.50
2023-04-03T14:32:49.870Z,88.20
2023-04-03T14:35:18.677Z,88.20
2023-04-03T14:37:48.370Z,88.00
2023-04-03T14:40:18.625Z,88.40
2023-04-03T14:42:49.792Z,88.00
2023-04-03T14:45:19.433Z,88.10
2023-04-03T14:47:50.096Z,88.10
2023-04-03T14:50:22.043Z,87.80
2023-04-03T14:52:52.920Z,87.60
2023-04-03T14:55:23.799Z,87.60
2023-04-03T14:57:54.800Z,87.80
2023-04-03T15:00:24.362Z,87.80
2023-04-03T15:02:53.737Z,87.60
2023-04-03T15:05:22.333Z,87.60
2023-04-03T15:07:54.573Z,87.80
2023-04-03T15:10:24.899Z,87.70
2023-04-03T15:12:55.743Z,87.80
2023-04-03T15:15:25.862Z,87.50
2023-04-03T15:17:58.761Z,87.50
2023-04-03T15:20:31.619Z,87.30
2023-04-03T15:23:02.103Z,87.60
2023-04-03T15:25:31.034Z,87.20
2023-04-03T15:28:01.947Z,87.10
2023-04-03T15:30:31.971Z,87.50
2023-04-03T15:33:00.676Z,86.80
2023-04-03T15:35:29.382Z,86.90
2023-04-03T15:37:57.727Z,86.90
2023-04-03T15:40:26.718Z,87.10
2023-04-03T15:42:55.277Z,87.40
2023-04-03T15:45:25.084Z,87.10
2023-04-03T15:47:53.596Z,87.10
2023-04-03T15:50:23.833Z,86.90
2023-04-03T15:52:55.350Z,87.10
2023-04-03T15:55:24.388Z,87.20
2023-04-03T15:57:53.431Z,87.10
2023-04-03T16:00:23.019Z,87.20
2023-04-03T16:02:55.181Z,87.50
2023-04-03T16:05:23.994Z,87.60
2023-04-03T16:07:53.152Z,87.50
2023-04-03T16:10:22.127Z,87.50
2023-04-03T16:12:50.387Z,86.90
2023-04-03T16:15:18.748Z,86.90
2023-04-03T16:17:49.079Z,87.00
2023-04-03T16:20:19.707Z,87.20
2023-04-03T16:22:48.062Z,87.40
2023-04-03T16:25:16.705Z,87.20
2023-04-03T16:27:45.066Z,87.20
2023-04-03T16:30:14.172Z,87.20
2023-04-03T16:32:43.180Z,87.20
2023-04-03T16:35:12.813Z,87.10
2023-04-03T16:37:42.416Z,86.90
2023-04-03T16:40:13.090Z,87.10
2023-04-03T16:42:41.413Z,87.20
2023-04-03T16:45:11.085Z,87.00
2023-04-03T16:47:39.786Z,87.00
2023-04-03T16:50:09.215Z,86.90
2023-04-03T16:52:37.555Z,87.00
2023-04-03T16:55:08.123Z,87.10
2023-04-03T16:57:36.569Z,87.30
2023-04-03T17:00:06.396Z,87.30
2023-04-03T17:02:34.842Z,87.30
2023-04-03T17:05:03.399Z,87.50
2023-04-03T17:07:31.682Z,87.60
2023-04-03T17:10:00.922Z,87.60
2023-04-03T17:12:30.592Z,87.70
2023-04-03T17:14:58.809Z,87.70
2023-04-03T17:17:28.035Z,87.80
2023-04-03T17:19:57.891Z,87.70
2023-04-03T17:22:26.396Z,88.50
2023-04-03T17:24:54.594Z,87.60
2023-04-03T17:27:23.175Z,87.60
2023-04-03T17:29:53.152Z,87.70
2023-04-03T17:32:21.423Z,87.80
2023-04-03T17:34:49.752Z,87.90
2023-04-03T17:37:18.407Z,88.00
2023-04-03T17:39:47.547Z,88.00
2023-04-03T17:42:16.132Z,88.00
2023-04-03T17:44:44.396Z,88.00
2023-04-03T17:47:14.412Z,88.00
2023-04-03T17:49:42.728Z,88.20
2023-04-03T17:52:11.262Z,88.10
2023-04-03T17:54:39.432Z,88.10
2023-04-03T17:57:08.922Z,88.20
2023-04-03T17:59:37.125Z,88.40
2023-04-03T18:02:05.707Z,88.20
2023-04-03T18:04:35.303Z,88.30
2023-04-03T18:07:05.009Z,88.40
2023-04-03T18:09:35.026Z,88.40
2023-04-03T18:12:05.699Z,88.50
2023-04-03T18:14:36.435Z,88.50
2023-04-03T18:17:05.255Z,88.40
2023-04-03T18:19:35.691Z,88.50
2023-04-03T18:22:07.356Z,88.70
2023-04-03T18:24:37.192Z,88.70
2023-04-03T18:27:08.328Z,88.60
2023-04-03T18:29:39.506Z,88.60
2023-04-03T18:32:10.223Z,88.40
2023-04-03T18:34:40.300Z,88.20
2023-04-03T18:37:09.024Z,88.00
2023-04-03T18:39:37.244Z,87.90
2023-04-03T18:42:09.112Z,88.60
2023-04-03T18:44:40.673Z,87.90
2023-04-03T18:47:10.208Z,88.00
2023-04-03T18:49:41.588Z,87.90
2023-04-03T18:52:11.861Z,88.00
2023-04-03T18:54:40.959Z,88.00
2023-04-03T18:57:09.270Z,87.80
2023-04-03T18:59:37.875Z,87.80
2023-04-03T19:02:07.633Z,87.80
2023-04-03T19:04:37.162Z,87.90
2023-04-03T19:07:07.334Z,87.90
2023-04-03T19:09:38.656Z,88.00
2023-04-03T19:12:07.961Z,88.00
2023-04-03T19:14:36.167Z,88.00
2023-04-03T19:17:07.831Z,88.00
2023-04-03T19:19:36.114Z,87.90
2023-04-03T19:22:04.295Z,87.90
2023-04-03T19:24:34.355Z,88.00
2023-04-03T19:27:02.987Z,88.00
2023-04-03T19:29:31.292Z,88.10
2023-04-03T19:31:59.661Z,88.30
2023-04-03T19:34:28.508Z,88.50
2023-04-03T19:36:57.095Z,88.60
2023-04-03T19:39:26.454Z,88.60
2023-04-03T19:41:56.083Z,88.60
2023-04-03T19:44:24.698Z,88.70
2023-04-03T19:46:54.057Z,88.80
2023-04-03T19:49:22.675Z,89.00
2023-04-03T19:51:51.176Z,89.00
2023-04-03T19:54:19.365Z,89.00
2023-04-03T19:56:47.593Z,89.20
2023-04-03T19:59:17.854Z,89.20
2023-04-03T20:01:47.351Z,89.40
2023-04-03T20:04:15.819Z,89.40
2023-04-03T20:06:44.000Z,89.50
2023-04-03T20:09:12.692Z,89.50
2023-04-03T20:11:41.335Z,89.60
2023-04-03T20:14:09.803Z,89.80
2023-04-03T20:16:40.192Z,89.80
2023-04-03T20:19:09.500Z,89.90
2023-04-03T20:21:38.783Z,89.90
2023-04-03T20:24:10.708Z,89.90
2023-04-03T20:26:46.198Z,89.90
2023-04-03T20:29:16.792Z,89.90
2023-04-03T20:31:47.347Z,89.70
2023-04-03T20:34:16.215Z,89.80
2023-04-03T20:36:48.020Z,89.70
2023-04-03T20:39:19.450Z,89.90
2023-04-03T20:41:48.642Z,90.00
2023-04-03T20:44:21.996Z,90.00
2023-04-03T20:46:53.361Z,90.10
2023-04-03T20:49:22.807Z,90.10
2023-04-03T20:51:52.273Z,90.20
2023-04-03T20:54:20.868Z,90.20
2023-04-03T20:56:49.836Z,90.20
2023-04-03T20:59:19.063Z,90.30
2023-04-03T21:01:48.872Z,90.40
2023-04-03T21:04:24.812Z,90.30
2023-04-03T21:07:30.925Z,90.40
2023-04-03T21:10:37.334Z,90.40
2023-04-03T21:13:43.138Z,90.40
2023-04-03T21:16:11.316Z,90.30
2023-04-03T21:19:06.044Z,90.20
2023-04-03T21:21:36.998Z,90.50
2023-04-03T21:24:09.825Z,90.30
2023-04-03T21:26:39.962Z,90.40
2023-04-03T21:29:09.240Z,90.50
2023-04-03T21:31:52.857Z,90.60
2023-04-03T21:34:25.923Z,90.70
2023-04-03T21:36:55.017Z,90.60
2023-04-03T21:39:24.131Z,90.60
2023-04-03T21:41:53.000Z,90.70
2023-04-03T21:44:22.251Z,90.70
2023-04-03T21:46:54.372Z,90.70
2023-04-03T21:49:25.832Z,90.80
2023-04-03T21:51:54.645Z,90.90
2023-04-03T21:54:22.810Z,90.90
2023-04-03T21:56:52.430Z,90.90
2023-04-03T21:59:21.356Z,91.00
2023-04-03T22:01:49.805Z,91.00
2023-04-03T22:04:18.009Z,91.10
2023-04-03T22:06:47.901Z,91.10
2023-04-03T22:09:16.683Z,91.10
2023-04-03T22:11:46.024Z,91.10
2023-04-03T22:14:14.407Z,91.10
2023-04-03T22:16:46.609Z,91.30
2023-04-03T22:19:14.983Z,91.30
2023-04-03T22:21:43.673Z,91.30
2023-04-03T22:24:13.435Z,91.40
2023-04-03T22:26:44.392Z,91.50
2023-04-03T22:29:13.266Z,91.60
2023-04-03T22:31:42.684Z,91.60
2023-04-03T22:34:11.091Z,91.70
2023-04-03T22:36:42.993Z,91.70
2023-04-03T22:39:15.158Z,91.80
2023-04-03T22:41:45.344Z,91.90
2023-04-03T22:44:14.232Z,92.00
2023-04-03T22:46:42.904Z,92.00
2023-04-03T22:49:11.224Z,92.00
2023-04-03T22:51:39.799Z,92.10
2023-04-03T22:54:08.271Z,92.10
2023-04-03T22:56:38.147Z,92.20
2023-04-03T22:59:06.485Z,92.20
2023-04-03T23:01:37.250Z,92.30
2023-04-03T23:04:07.343Z,92.40
2023-04-03T23:06:35.914Z,92.40
2023-04-03T23:09:04.613Z,92.40
2023-04-03T23:11:32.839Z,92.50
2023-04-03T23:14:03.133Z,92.70
2023-04-03T23:16:31.777Z,92.70
2023-04-03T23:19:00.758Z,92.70
2023-04-03T23:21:29.084Z,92.70
2023-04-03T23:23:58.198Z,92.80
2023-04-03T23:26:26.775Z,92.90
2023-04-03T23:28:55.002Z,92.90
2023-04-03T23:31:25.960Z,93.00
2023-04-03T23:33:54.528Z,93.10
2023-04-03T23:36:22.764Z,93.10
2023-04-03T23:38:51.037Z,93.20
2023-04-03T23:41:19.219Z,93.30
2023-04-03T23:43:47.843Z,93.30
2023-04-03T23:46:16.377Z,93.30
2023-04-03T23:48:45.995Z,93.40
2023-04-03T23:51:14.197Z,93.60
2023-04-03T23:53:42.866Z,93.60
2023-04-03T23:56:13.178Z,93.70
2023-04-03T23:58:41.781Z,93.70
